Search METAR Data

METAR Data for ENVD:

ENVD 301320Z 09006KT CAVOK 18/10 Q1012